sensor_id;sensor_type;location;lat;lon;timestamp;pressure;altitude;pressure_sealevel;temperature
68939;BMP180;59064;45.294;11.816;2023-03-01T00:01:17;101813.60;;;2.72
68939;BMP180;59064;45.294;11.816;2023-03-01T00:03:43;101815.40;;;2.70
68939;BMP180;59064;45.294;11.816;2023-03-01T00:06:09;101818.80;;;2.70
68939;BMP180;59064;45.294;11.816;2023-03-01T00:08:35;101808.80;;;2.70
68939;BMP180;59064;45.294;11.816;2023-03-01T00:13:30;101805.20;;;2.70
68939;BMP180;59064;45.294;11.816;2023-03-01T00:15:56;101797.20;;;2.70
68939;BMP180;59064;45.294;11.816;2023-03-01T00:18:22;101794.80;;;2.70
68939;BMP180;59064;45.294;11.816;2023-03-01T00:20:53;101790.60;;;2.60
68939;BMP180;59064;45.294;11.816;2023-03-01T00:23:20;101786.80;;;2.60
68939;BMP180;59064;45.294;11.816;2023-03-01T00:25:46;101784.20;;;2.50
68939;BMP180;59064;45.294;11.816;2023-03-01T00:28:12;101780.20;;;2.50
68939;BMP180;59064;45.294;11.816;2023-03-01T00:30:38;101771.40;;;2.42
68939;BMP180;59064;45.294;11.816;2023-03-01T00:33:04;101768.40;;;2.40
68939;BMP180;59064;45.294;11.816;2023-03-01T00:35:32;101759.80;;;2.40
68939;BMP180;59064;45.294;11.816;2023-03-01T00:37:58;101754.60;;;2.40
68939;BMP180;59064;45.294;11.816;2023-03-01T00:40:28;101754.20;;;2.40
68939;BMP180;59064;45.294;11.816;2023-03-01T00:42:55;101759.80;;;2.50
68939;BMP180;59064;45.294;11.816;2023-03-01T00:45:21;101753.20;;;2.50
68939;BMP180;59064;45.294;11.816;2023-03-01T00:47:49;101748.60;;;2.50
68939;BMP180;59064;45.294;11.816;2023-03-01T00:50:15;101746.00;;;2.50
68939;BMP180;59064;45.294;11.816;2023-03-01T00:52:40;101743.20;;;2.50
68939;BMP180;59064;45.294;11.816;2023-03-01T00:55:07;101734.80;;;2.60
68939;BMP180;59064;45.294;11.816;2023-03-01T00:57:33;101724.20;;;2.62
68939;BMP180;59064;45.294;11.816;2023-03-01T00:59:59;101727.60;;;2.70
68939;BMP180;59064;45.294;11.816;2023-03-01T01:02:25;101728.40;;;2.70
68939;BMP180;59064;45.294;11.816;2023-03-01T01:04:51;101725.60;;;2.80
68939;BMP180;59064;45.294;11.816;2023-03-01T01:07:17;101724.00;;;2.80
68939;BMP180;59064;45.294;11.816;2023-03-01T01:09:46;101718.20;;;2.80
68939;BMP180;59064;45.294;11.816;2023-03-01T01:12:12;101713.60;;;2.90
68939;BMP180;59064;45.294;11.816;2023-03-01T01:14:38;101709.60;;;2.90
68939;BMP180;59064;45.294;11.816;2023-03-01T01:17:04;101705.80;;;3.00
68939;BMP180;59064;45.294;11.816;2023-03-01T01:19:30;101700.80;;;3.00
68939;BMP180;59064;45.294;11.816;2023-03-01T01:21:56;101697.60;;;3.10
68939;BMP180;59064;45.294;11.816;2023-03-01T01:24:22;101694.80;;;3.10
68939;BMP180;59064;45.294;11.816;2023-03-01T01:26:48;101688.80;;;3.12
68939;BMP180;59064;45.294;11.816;2023-03-01T01:29:14;101686.80;;;3.20
68939;BMP180;59064;45.294;11.816;2023-03-01T01:31:42;101677.40;;;3.20
68939;BMP180;59064;45.294;11.816;2023-03-01T01:34:14;101681.00;;;3.20
68939;BMP180;59064;45.294;11.816;2023-03-01T01:36:40;101677.00;;;3.30
68939;BMP180;59064;45.294;11.816;2023-03-01T01:39:06;101675.20;;;3.30
68939;BMP180;59064;45.294;11.816;2023-03-01T01:41:33;101673.00;;;3.34
68939;BMP180;59064;45.294;11.816;2023-03-01T01:44:22;101669.40;;;3.36
68939;BMP180;59064;45.294;11.816;2023-03-01T01:47:06;101660.20;;;3.40
68939;BMP180;59064;45.294;11.816;2023-03-01T01:49:49;101658.40;;;3.40
68939;BMP180;59064;45.294;11.816;2023-03-01T01:52:34;101654.40;;;3.40
68939;BMP180;59064;45.294;11.816;2023-03-01T01:55:11;101641.20;;;3.40
68939;BMP180;59064;45.294;11.816;2023-03-01T01:57:45;101628.40;;;3.40
68939;BMP180;59064;45.294;11.816;2023-03-01T02:00:21;101625.80;;;3.40
68939;BMP180;59064;45.294;11.816;2023-03-01T02:02:51;101622.00;;;3.40
68939;BMP180;59064;45.294;11.816;2023-03-01T02:06:17;101614.80;;;3.40
68939;BMP180;59064;45.294;11.816;2023-03-01T02:08:40;101615.80;;;3.40
68939;BMP180;59064;45.294;11.816;2023-03-01T02:11:08;101612.80;;;3.40
68939;BMP180;59064;45.294;11.816;2023-03-01T02:13:36;101617.00;;;3.50
68939;BMP180;59064;45.294;11.816;2023-03-01T02:16:09;101612.00;;;3.50
68939;BMP180;59064;45.294;11.816;2023-03-01T02:18:37;101604.20;;;3.50
68939;BMP180;59064;45.294;11.816;2023-03-01T02:21:44;101606.00;;;3.50
68939;BMP180;59064;45.294;11.816;2023-03-01T02:26:57;101596.40;;;3.40
68939;BMP180;59064;45.294;11.816;2023-03-01T02:29:24;101588.00;;;3.40
68939;BMP180;59064;45.294;11.816;2023-03-01T02:31:54;101587.40;;;3.40
68939;BMP180;59064;45.294;11.816;2023-03-01T02:34:24;101577.20;;;3.42
68939;BMP180;59064;45.294;11.816;2023-03-01T02:37:07;101584.80;;;3.48
68939;BMP180;59064;45.294;11.816;2023-03-01T02:39:40;101583.20;;;3.40
68939;BMP180;59064;45.294;11.816;2023-03-01T02:42:13;101585.80;;;3.40
68939;BMP180;59064;45.294;11.816;2023-03-01T02:44:40;101583.40;;;3.40
68939;BMP180;59064;45.294;11.816;2023-03-01T02:47:06;101574.40;;;3.30
68939;BMP180;59064;45.294;11.816;2023-03-01T02:49:35;101571.20;;;3.30
68939;BMP180;59064;45.294;11.816;2023-03-01T02:57:35;101569.00;;;3.30
68939;BMP180;59064;45.294;11.816;2023-03-01T03:00:10;101559.60;;;3.30
68939;BMP180;59064;45.294;11.816;2023-03-01T03:02:44;101558.00;;;3.30
68939;BMP180;59064;45.294;11.816;2023-03-01T03:05:15;101554.60;;;3.30
68939;BMP180;59064;45.294;11.816;2023-03-01T03:07:44;101555.40;;;3.30
68939;BMP180;59064;45.294;11.816;2023-03-01T03:10:23;101557.40;;;3.30
68939;BMP180;59064;45.294;11.816;2023-03-01T03:12:52;101549.00;;;3.30
68939;BMP180;59064;45.294;11.816;2023-03-01T03:15:19;101544.00;;;3.30
68939;BMP180;59064;45.294;11.816;2023-03-01T03:17:46;101541.00;;;3.30
68939;BMP180;59064;45.294;11.816;2023-03-01T03:20:15;101537.60;;;3.30
68939;BMP180;59064;45.294;11.816;2023-03-01T03:22:47;101527.40;;;3.30
68939;BMP180;59064;45.294;11.816;2023-03-01T03:25:13;101527.60;;;3.28
68939;BMP180;59064;45.294;11.816;2023-03-01T03:27:41;101526.60;;;3.30
68939;BMP180;59064;45.294;11.816;2023-03-01T03:30:12;101534.80;;;3.30
68939;BMP180;59064;45.294;11.816;2023-03-01T03:32:45;101535.00;;;3.30
68939;BMP180;59064;45.294;11.816;2023-03-01T03:37:52;101536.40;;;3.30
68939;BMP180;59064;45.294;11.816;2023-03-01T03:40:30;101532.60;;;3.28
68939;BMP180;59064;45.294;11.816;2023-03-01T03:42:56;101531.40;;;3.20
68939;BMP180;59064;45.294;11.816;2023-03-01T03:45:22;101530.60;;;3.20
68939;BMP180;59064;45.294;11.816;2023-03-01T03:47:48;101534.40;;;3.20
68939;BMP180;59064;45.294;11.816;2023-03-01T03:50:16;101539.40;;;3.20
68939;BMP180;59064;45.294;11.816;2023-03-01T03:52:42;101535.40;;;3.20
68939;BMP180;59064;45.294;11.816;2023-03-01T03:55:10;101531.00;;;3.20
68939;BMP180;59064;45.294;11.816;2023-03-01T03:57:41;101523.40;;;3.20
68939;BMP180;59064;45.294;11.816;2023-03-01T04:00:11;101514.20;;;3.24
68939;BMP180;59064;45.294;11.816;2023-03-01T04:02:45;101509.60;;;3.30
68939;BMP180;59064;45.294;11.816;2023-03-01T04:05:13;101509.20;;;3.30
68939;BMP180;59064;45.294;11.816;2023-03-01T04:07:41;101502.20;;;3.30
68939;BMP180;59064;45.294;11.816;2023-03-01T04:10:12;101499.60;;;3.40
68939;BMP180;59064;45.294;11.816;2023-03-01T04:12:38;101496.40;;;3.40
68939;BMP180;59064;45.294;11.816;2023-03-01T04:15:06;101496.60;;;3.40
68939;BMP180;59064;45.294;11.816;2023-03-01T04:17:47;101496.80;;;3.50
68939;BMP180;59064;45.294;11.816;2023-03-01T04:20:20;101498.60;;;3.50
68939;BMP180;59064;45.294;11.816;2023-03-01T04:23:01;101494.40;;;3.60
68939;BMP180;59064;45.294;11.816;2023-03-01T04:25:53;101500.20;;;3.60
68939;BMP180;59064;45.294;11.816;2023-03-01T04:28:35;101494.80;;;3.60
68939;BMP180;59064;45.294;11.816;2023-03-01T04:31:17;101499.00;;;3.60
68939;BMP180;59064;45.294;11.816;2023-03-01T04:36:11;101489.80;;;3.70
68939;BMP180;59064;45.294;11.816;2023-03-01T04:38:38;101495.20;;;3.70
68939;BMP180;59064;45.294;11.816;2023-03-01T04:41:10;101494.20;;;3.70
68939;BMP180;59064;45.294;11.816;2023-03-01T04:43:37;101493.00;;;3.70
68939;BMP180;59064;45.294;11.816;2023-03-01T04:46:09;101495.00;;;3.70
68939;BMP180;59064;45.294;11.816;2023-03-01T04:48:37;101496.00;;;3.70
68939;BMP180;59064;45.294;11.816;2023-03-01T04:51:04;101492.60;;;3.70
68939;BMP180;59064;45.294;11.816;2023-03-01T04:53:31;101491.80;;;3.70
68939;BMP180;59064;45.294;11.816;2023-03-01T04:55:59;101485.60;;;3.76
68939;BMP180;59064;45.294;11.816;2023-03-01T04:58:27;101490.40;;;3.80
68939;BMP180;59064;45.294;11.816;2023-03-01T05:00:54;101489.80;;;3.80
68939;BMP180;59064;45.294;11.816;2023-03-01T05:03:21;101487.00;;;3.80
68939;BMP180;59064;45.294;11.816;2023-03-01T05:05:50;101480.00;;;3.80
68939;BMP180;59064;45.294;11.816;2023-03-01T05:08:16;101479.00;;;3.90
68939;BMP180;59064;45.294;11.816;2023-03-01T05:10:52;101489.40;;;3.90
68939;BMP180;59064;45.294;11.816;2023-03-01T05:13:19;101493.40;;;4.00
68939;BMP180;59064;45.294;11.816;2023-03-01T05:15:59;101487.60;;;4.00
68939;BMP180;59064;45.294;11.816;2023-03-01T05:18:28;101483.40;;;4.00
68939;BMP180;59064;45.294;11.816;2023-03-01T05:21:02;101478.00;;;4.00
68939;BMP180;59064;45.294;11.816;2023-03-01T05:23:31;101478.00;;;4.00
68939;BMP180;59064;45.294;11.816;2023-03-01T05:26:01;101477.40;;;4.00
68939;BMP180;59064;45.294;11.816;2023-03-01T05:28:29;101475.20;;;4.00
68939;BMP180;59064;45.294;11.816;2023-03-01T05:30:56;101474.00;;;4.00
68939;BMP180;59064;45.294;11.816;2023-03-01T05:33:23;101474.00;;;4.00
68939;BMP180;59064;45.294;11.816;2023-03-01T05:35:50;101470.80;;;4.00
68939;BMP180;59064;45.294;11.816;2023-03-01T05:38:17;101463.20;;;4.08
68939;BMP180;59064;45.294;11.816;2023-03-01T05:40:46;101454.60;;;4.10
68939;BMP180;59064;45.294;11.816;2023-03-01T05:43:15;101450.80;;;4.08
68939;BMP180;59064;45.294;11.816;2023-03-01T05:45:41;101455.80;;;4.10
68939;BMP180;59064;45.294;11.816;2023-03-01T05:48:08;101452.20;;;4.10
68939;BMP180;59064;45.294;11.816;2023-03-01T05:50:38;101458.60;;;4.16
68939;BMP180;59064;45.294;11.816;2023-03-01T05:53:25;101449.80;;;4.20
68939;BMP180;59064;45.294;11.816;2023-03-01T05:55:51;101443.40;;;4.20
68939;BMP180;59064;45.294;11.816;2023-03-01T05:58:19;101444.60;;;4.20
68939;BMP180;59064;45.294;11.816;2023-03-01T06:00:47;101446.00;;;4.30
68939;BMP180;59064;45.294;11.816;2023-03-01T06:03:15;101445.80;;;4.30
68939;BMP180;59064;45.294;11.816;2023-03-01T06:05:41;101454.20;;;4.30
68939;BMP180;59064;45.294;11.816;2023-03-01T06:08:09;101457.00;;;4.34
68939;BMP180;59064;45.294;11.816;2023-03-01T06:10:35;101456.60;;;4.40
68939;BMP180;59064;45.294;11.816;2023-03-01T06:13:01;101455.80;;;4.40
68939;BMP180;59064;45.294;11.816;2023-03-01T06:15:26;101463.60;;;4.40
68939;BMP180;59064;45.294;11.816;2023-03-01T06:17:54;101466.80;;;4.40
68939;BMP180;59064;45.294;11.816;2023-03-01T06:20:25;101467.20;;;4.46
68939;BMP180;59064;45.294;11.816;2023-03-01T06:22:51;101470.80;;;4.50
68939;BMP180;59064;45.294;11.816;2023-03-01T06:25:21;101465.80;;;4.50
68939;BMP180;59064;45.294;11.816;2023-03-01T06:27:48;101465.60;;;4.50
68939;BMP180;59064;45.294;11.816;2023-03-01T06:30:17;101466.40;;;4.60
68939;BMP180;59064;45.294;11.816;2023-03-01T06:32:43;101469.40;;;4.60
68939;BMP180;59064;45.294;11.816;2023-03-01T06:35:14;101466.20;;;4.68
68939;BMP180;59064;45.294;11.816;2023-03-01T06:37:43;101463.20;;;4.70
68939;BMP180;59064;45.294;11.816;2023-03-01T06:40:10;101462.20;;;4.80
68939;BMP180;59064;45.294;11.816;2023-03-01T06:42:39;101472.20;;;4.80
68939;BMP180;59064;45.294;11.816;2023-03-01T06:45:06;101478.80;;;4.90
68939;BMP180;59064;45.294;11.816;2023-03-01T06:47:33;101475.80;;;4.98
68939;BMP180;59064;45.294;11.816;2023-03-01T06:50:00;101465.60;;;5.00
68939;BMP180;59064;45.294;11.816;2023-03-01T06:52:26;101463.80;;;5.06
68939;BMP180;59064;45.294;11.816;2023-03-01T06:54:52;101469.80;;;5.10
68939;BMP180;59064;45.294;11.816;2023-03-01T06:57:18;101468.20;;;5.10
68939;BMP180;59064;45.294;11.816;2023-03-01T06:59:44;101454.80;;;5.20
68939;BMP180;59064;45.294;11.816;2023-03-01T07:02:14;101444.40;;;5.20
68939;BMP180;59064;45.294;11.816;2023-03-01T07:04:41;101446.00;;;5.30
68939;BMP180;59064;45.294;11.816;2023-03-01T07:07:07;101446.00;;;5.30
68939;BMP180;59064;45.294;11.816;2023-03-01T07:09:33;101442.20;;;5.40
68939;BMP180;59064;45.294;11.816;2023-03-01T07:11:59;101444.20;;;5.50
68939;BMP180;59064;45.294;11.816;2023-03-01T07:14:24;101439.40;;;5.50
68939;BMP180;59064;45.294;11.816;2023-03-01T07:16:52;101437.60;;;5.60
68939;BMP180;59064;45.294;11.816;2023-03-01T07:19:18;101437.60;;;5.70
68939;BMP180;59064;45.294;11.816;2023-03-01T07:21:43;101441.80;;;5.76
68939;BMP180;59064;45.294;11.816;2023-03-01T07:24:10;101445.40;;;5.80
68939;BMP180;59064;45.294;11.816;2023-03-01T07:26:36;101443.60;;;5.90
68939;BMP180;59064;45.294;11.816;2023-03-01T07:29:04;101433.60;;;6.00
68939;BMP180;59064;45.294;11.816;2023-03-01T07:31:30;101425.20;;;6.02
68939;BMP180;59064;45.294;11.816;2023-03-01T07:33:56;101424.40;;;6.10
68939;BMP180;59064;45.294;11.816;2023-03-01T07:36:24;101424.60;;;6.10
68939;BMP180;59064;45.294;11.816;2023-03-01T07:38:50;101428.20;;;6.20
68939;BMP180;59064;45.294;11.816;2023-03-01T07:41:16;101417.60;;;6.20
68939;BMP180;59064;45.294;11.816;2023-03-01T07:43:42;101420.00;;;6.20
68939;BMP180;59064;45.294;11.816;2023-03-01T07:46:08;101417.60;;;6.30
68939;BMP180;59064;45.294;11.816;2023-03-01T07:48:34;101422.00;;;6.30
68939;BMP180;59064;45.294;11.816;2023-03-01T07:51:01;101421.80;;;6.34
68939;BMP180;59064;45.294;11.816;2023-03-01T07:53:28;101416.20;;;6.40
68939;BMP180;59064;45.294;11.816;2023-03-01T07:56:09;101417.80;;;6.42
68939;BMP180;59064;45.294;11.816;2023-03-01T07:58:45;101415.60;;;6.50
68939;BMP180;59064;45.294;11.816;2023-03-01T08:01:15;101409.00;;;6.58
68939;BMP180;59064;45.294;11.816;2023-03-01T08:03:41;101402.00;;;6.60
68939;BMP180;59064;45.294;11.816;2023-03-01T08:06:11;101399.00;;;6.70
68939;BMP180;59064;45.294;11.816;2023-03-01T08:08:37;101400.00;;;6.80
68939;BMP180;59064;45.294;11.816;2023-03-01T08:11:05;101396.00;;;6.90
68939;BMP180;59064;45.294;11.816;2023-03-01T08:13:32;101394.20;;;7.00
68939;BMP180;59064;45.294;11.816;2023-03-01T08:16:08;101395.40;;;7.02
68939;BMP180;59064;45.294;11.816;2023-03-01T08:18:34;101383.20;;;7.10
68939;BMP180;59064;45.294;11.816;2023-03-01T08:21:10;101385.20;;;7.10
68939;BMP180;59064;45.294;11.816;2023-03-01T08:23:36;101383.00;;;7.12
68939;BMP180;59064;45.294;11.816;2023-03-01T08:26:11;101390.40;;;7.20
68939;BMP180;59064;45.294;11.816;2023-03-01T08:28:38;101373.40;;;7.30
68939;BMP180;59064;45.294;11.816;2023-03-01T08:31:28;101373.40;;;7.40
68939;BMP180;59064;45.294;11.816;2023-03-01T08:33:58;101373.20;;;7.60
68939;BMP180;59064;45.294;11.816;2023-03-01T08:36:31;101368.80;;;7.70
68939;BMP180;59064;45.294;11.816;2023-03-01T08:38:57;101368.00;;;7.82
68939;BMP180;59064;45.294;11.816;2023-03-01T08:41:23;101361.80;;;8.00
68939;BMP180;59064;45.294;11.816;2023-03-01T08:43:49;101367.40;;;8.10
68939;BMP180;59064;45.294;11.816;2023-03-01T08:46:15;101365.60;;;8.24
68939;BMP180;59064;45.294;11.816;2023-03-01T08:48:41;101372.40;;;8.30
68939;BMP180;59064;45.294;11.816;2023-03-01T08:51:17;101375.00;;;8.46
68939;BMP180;59064;45.294;11.816;2023-03-01T08:53:44;101371.00;;;8.60
68939;BMP180;59064;45.294;11.816;2023-03-01T08:56:10;101369.60;;;8.80
68939;BMP180;59064;45.294;11.816;2023-03-01T08:58:37;101368.60;;;9.06
68939;BMP180;59064;45.294;11.816;2023-03-01T09:01:16;101364.80;;;9.28
68939;BMP180;59064;45.294;11.816;2023-03-01T09:03:43;101354.00;;;9.40
68939;BMP180;59064;45.294;11.816;2023-03-01T09:06:10;101354.80;;;9.40
68939;BMP180;59064;45.294;11.816;2023-03-01T09:08:38;101345.60;;;9.40
68939;BMP180;59064;45.294;11.816;2023-03-01T09:11:11;101347.00;;;9.40
68939;BMP180;59064;45.294;11.816;2023-03-01T09:13:37;101333.60;;;9.40
68939;BMP180;59064;45.294;11.816;2023-03-01T09:16:07;101321.00;;;9.50
68939;BMP180;59064;45.294;11.816;2023-03-01T09:18:33;101327.60;;;9.52
68939;BMP180;59064;45.294;11.816;2023-03-01T09:21:09;101320.40;;;9.60
68939;BMP180;59064;45.294;11.816;2023-03-01T09:23:55;101301.60;;;9.70
68939;BMP180;59064;45.294;11.816;2023-03-01T09:26:22;101291.60;;;9.80
68939;BMP180;59064;45.294;11.816;2023-03-01T09:28:52;101305.60;;;9.80
68939;BMP180;59064;45.294;11.816;2023-03-01T09:31:21;101296.20;;;9.90
68939;BMP180;59064;45.294;11.816;2023-03-01T09:33:49;101288.80;;;9.90
68939;BMP180;59064;45.294;11.816;2023-03-01T09:36:19;101308.00;;;10.02
68939;BMP180;59064;45.294;11.816;2023-03-01T09:38:46;101311.40;;;10.20
68939;BMP180;59064;45.294;11.816;2023-03-01T09:41:59;101305.20;;;10.40
68939;BMP180;59064;45.294;11.816;2023-03-01T09:44:40;101299.00;;;10.60
68939;BMP180;59064;45.294;11.816;2023-03-01T09:47:35;101297.00;;;10.60
68939;BMP180;59064;45.294;11.816;2023-03-01T09:55:55;101299.80;;;10.80
68939;BMP180;59064;45.294;11.816;2023-03-01T10:01:36;101286.40;;;11.06
68939;BMP180;59064;45.294;11.816;2023-03-01T10:04:39;101279.20;;;11.10
68939;BMP180;59064;45.294;11.816;2023-03-01T10:09:42;101277.20;;;11.10
68939;BMP180;59064;45.294;11.816;2023-03-01T10:12:16;101297.20;;;11.10
68939;BMP180;59064;45.294;11.816;2023-03-01T10:18:00;101281.60;;;11.10
68939;BMP180;59064;45.294;11.816;2023-03-01T10:20:52;101277.80;;;11.20
68939;BMP180;59064;45.294;11.816;2023-03-01T10:23:18;101267.00;;;11.20
68939;BMP180;59064;45.294;11.816;2023-03-01T10:26:10;101277.20;;;11.20
68939;BMP180;59064;45.294;11.816;2023-03-01T10:28:54;101284.60;;;11.20
68939;BMP180;59064;45.294;11.816;2023-03-01T10:31:44;101290.80;;;11.20
68939;BMP180;59064;45.294;11.816;2023-03-01T10:34:33;101300.20;;;11.18
68939;BMP180;59064;45.294;11.816;2023-03-01T10:37:14;101300.60;;;11.20
68939;BMP180;59064;45.294;11.816;2023-03-01T10:40:00;101303.00;;;11.04
68939;BMP180;59064;45.294;11.816;2023-03-01T10:42:31;101293.40;;;10.78
68939;BMP180;59064;45.294;11.816;2023-03-01T10:44:57;101304.80;;;10.60
68939;BMP180;59064;45.294;11.816;2023-03-01T10:47:27;101319.60;;;10.50
68939;BMP180;59064;45.294;11.816;2023-03-01T10:50:06;101314.40;;;10.36
68939;BMP180;59064;45.294;11.816;2023-03-01T10:52:57;101344.40;;;10.30
68939;BMP180;59064;45.294;11.816;2023-03-01T10:55:39;101344.20;;;10.24
68939;BMP180;59064;45.294;11.816;2023-03-01T10:58:20;101362.60;;;10.22
68939;BMP180;59064;45.294;11.816;2023-03-01T11:03:15;101360.40;;;10.08
68939;BMP180;59064;45.294;11.816;2023-03-01T11:05:59;101347.60;;;10.00
68939;BMP180;59064;45.294;11.816;2023-03-01T11:08:45;101357.40;;;9.90
68939;BMP180;59064;45.294;11.816;2023-03-01T11:11:30;101361.80;;;9.86
68939;BMP180;59064;45.294;11.816;2023-03-01T11:14:05;101380.60;;;9.80
68939;BMP180;59064;45.294;11.816;2023-03-01T11:16:38;101387.20;;;9.70
68939;BMP180;59064;45.294;11.816;2023-03-01T11:19:16;101368.20;;;9.60
68939;BMP180;59064;45.294;11.816;2023-03-01T11:24:16;101363.80;;;9.28
68939;BMP180;59064;45.294;11.816;2023-03-01T11:26:50;101368.60;;;9.20
68939;BMP180;59064;45.294;11.816;2023-03-01T11:31:59;101378.00;;;9.10
68939;BMP180;59064;45.294;11.816;2023-03-01T11:37:26;101388.20;;;9.04
68939;BMP180;59064;45.294;11.816;2023-03-01T11:40:03;101378.80;;;9.10
68939;BMP180;59064;45.294;11.816;2023-03-01T11:45:24;101339.60;;;9.00
68939;BMP180;59064;45.294;11.816;2023-03-01T12:14:09;101370.00;;;8.50
68939;BMP180;59064;45.294;11.816;2023-03-01T12:37:17;101330.60;;;8.40
68939;BMP180;59064;45.294;11.816;2023-03-01T12:50:59;101337.20;;;8.20
68939;BMP180;59064;45.294;11.816;2023-03-01T12:53:59;101335.40;;;8.20
68939;BMP180;59064;45.294;11.816;2023-03-01T12:56:32;101343.20;;;8.20
68939;BMP180;59064;45.294;11.816;2023-03-01T13:02:25;101332.00;;;8.20
68939;BMP180;59064;45.294;11.816;2023-03-01T13:05:37;101338.40;;;8.20
68939;BMP180;59064;45.294;11.816;2023-03-01T13:08:20;101343.80;;;8.20
68939;BMP180;59064;45.294;11.816;2023-03-01T13:11:15;101330.20;;;8.20
68939;BMP180;59064;45.294;11.816;2023-03-01T13:13:41;101326.80;;;8.10
68939;BMP180;59064;45.294;11.816;2023-03-01T13:16:40;101322.00;;;8.00
68939;BMP180;59064;45.294;11.816;2023-03-01T13:19:20;101342.20;;;8.00
68939;BMP180;59064;45.294;11.816;2023-03-01T13:21:48;101334.80;;;7.90
68939;BMP180;59064;45.294;11.816;2023-03-01T13:24:41;101330.00;;;7.90
68939;BMP180;59064;45.294;11.816;2023-03-01T13:35:01;101326.80;;;7.68
68939;BMP180;59064;45.294;11.816;2023-03-01T13:37:35;101320.40;;;7.60
68939;BMP180;59064;45.294;11.816;2023-03-01T13:42:56;101346.80;;;7.40
68939;BMP180;59064;45.294;11.816;2023-03-01T13:48:03;101337.40;;;7.20
68939;BMP180;59064;45.294;11.816;2023-03-01T13:50:38;101329.20;;;7.10
68939;BMP180;59064;45.294;11.816;2023-03-01T13:53:16;101344.00;;;7.04
68939;BMP180;59064;45.294;11.816;2023-03-01T13:56:16;101339.20;;;7.00
68939;BMP180;59064;45.294;11.816;2023-03-01T13:58:58;101334.80;;;6.90
68939;BMP180;59064;45.294;11.816;2023-03-01T14:01:31;101338.40;;;6.90
68939;BMP180;59064;45.294;11.816;2023-03-01T14:03:57;101335.80;;;6.80
68939;BMP180;59064;45.294;11.816;2023-03-01T14:06:30;101328.40;;;6.72
68939;BMP180;59064;45.294;11.816;2023-03-01T14:20:30;101319.00;;;6.62
68939;BMP180;59064;45.294;11.816;2023-03-01T14:23:02;101333.40;;;6.68
68939;BMP180;59064;45.294;11.816;2023-03-01T14:25:37;101329.60;;;6.70
68939;BMP180;59064;45.294;11.816;2023-03-01T14:28:34;101331.00;;;6.60
68939;BMP180;59064;45.294;11.816;2023-03-01T14:31:01;101324.80;;;6.60
68939;BMP180;59064;45.294;11.816;2023-03-01T14:33:31;101325.60;;;6.60
68939;BMP180;59064;45.294;11.816;2023-03-01T14:36:08;101329.60;;;6.60
68939;BMP180;59064;45.294;11.816;2023-03-01T14:38:46;101324.40;;;6.60
68939;BMP180;59064;45.294;11.816;2023-03-01T14:41:22;101320.40;;;6.58
68939;BMP180;59064;45.294;11.816;2023-03-01T14:44:16;101315.40;;;6.50
68939;BMP180;59064;45.294;11.816;2023-03-01T14:46:44;101324.60;;;6.52
68939;BMP180;59064;45.294;11.816;2023-03-01T14:49:21;101321.40;;;6.50
68939;BMP180;59064;45.294;11.816;2023-03-01T14:52:00;101326.00;;;6.50
68939;BMP180;59064;45.294;11.816;2023-03-01T14:54:45;101320.80;;;6.50
68939;BMP180;59064;45.294;11.816;2023-03-01T14:57:29;101331.20;;;6.42
68939;BMP180;59064;45.294;11.816;2023-03-01T14:59:59;101335.80;;;6.40
68939;BMP180;59064;45.294;11.816;2023-03-01T15:02:29;101335.00;;;6.40
68939;BMP180;59064;45.294;11.816;2023-03-01T15:04:59;101338.20;;;6.34
68939;BMP180;59064;45.294;11.816;2023-03-01T15:07:38;101331.60;;;6.30
68939;BMP180;59064;45.294;11.816;2023-03-01T15:10:06;101324.60;;;6.30
68939;BMP180;59064;45.294;11.816;2023-03-01T15:12:42;101332.60;;;6.30
68939;BMP180;59064;45.294;11.816;2023-03-01T15:15:44;101324.00;;;6.30
68939;BMP180;59064;45.294;11.816;2023-03-01T15:18:22;101321.20;;;6.50
68939;BMP180;59064;45.294;11.816;2023-03-01T15:20:49;101320.00;;;6.60
68939;BMP180;59064;45.294;11.816;2023-03-01T15:25:49;101301.80;;;6.54
68939;BMP180;59064;45.294;11.816;2023-03-01T15:28:31;101305.00;;;6.50
68939;BMP180;59064;45.294;11.816;2023-03-01T15:34:08;101308.00;;;6.30
68939;BMP180;59064;45.294;11.816;2023-03-01T15:36:46;101307.00;;;6.28
68939;BMP180;59064;45.294;11.816;2023-03-01T15:39:30;101300.40;;;6.20
68939;BMP180;59064;45.294;11.816;2023-03-01T15:41:56;101279.60;;;6.20
68939;BMP180;59064;45.294;11.816;2023-03-01T15:44:32;101304.60;;;6.30
68939;BMP180;59064;45.294;11.816;2023-03-01T15:46:58;101318.80;;;6.30
68939;BMP180;59064;45.294;11.816;2023-03-01T15:49:40;101298.60;;;6.30
68939;BMP180;59064;45.294;11.816;2023-03-01T15:52:40;101306.60;;;6.30
68939;BMP180;59064;45.294;11.816;2023-03-01T15:55:28;101307.00;;;6.30
68939;BMP180;59064;45.294;11.816;2023-03-01T15:58:10;101311.60;;;6.28
68939;BMP180;59064;45.294;11.816;2023-03-01T16:00:36;101277.00;;;6.20
68939;BMP180;59064;45.294;11.816;2023-03-01T16:03:03;101302.00;;;6.30
68939;BMP180;59064;45.294;11.816;2023-03-01T16:05:33;101318.40;;;6.20
68939;BMP180;59064;45.294;11.816;2023-03-01T16:08:01;101310.60;;;6.18
68939;BMP180;59064;45.294;11.816;2023-03-01T16:10:30;101318.80;;;6.10
68939;BMP180;59064;45.294;11.816;2023-03-01T16:12:56;101316.20;;;6.10
68939;BMP180;59064;45.294;11.816;2023-03-01T16:17:50;101317.20;;;6.00
68939;BMP180;59064;45.294;11.816;2023-03-01T16:20:18;101321.00;;;6.00
68939;BMP180;59064;45.294;11.816;2023-03-01T16:22:44;101332.20;;;6.00
68939;BMP180;59064;45.294;11.816;2023-03-01T16:25:14;101325.00;;;5.92
68939;BMP180;59064;45.294;11.816;2023-03-01T16:27:45;101326.80;;;5.90
68939;BMP180;59064;45.294;11.816;2023-03-01T16:30:13;101330.00;;;5.90
68939;BMP180;59064;45.294;11.816;2023-03-01T16:32:41;101332.80;;;5.90
68939;BMP180;59064;45.294;11.816;2023-03-01T16:35:09;101334.20;;;5.80
68939;BMP180;59064;45.294;11.816;2023-03-01T16:37:36;101341.60;;;5.80
68939;BMP180;59064;45.294;11.816;2023-03-01T16:40:20;101349.60;;;5.76
68939;BMP180;59064;45.294;11.816;2023-03-01T16:42:48;101350.20;;;5.70